createdAt,value
2023-03-17T00:01:51.302Z,7.07
2023-03-17T00:04:20.060Z,7.60
2023-03-17T00:06:48.704Z,6.80
2023-03-17T00:09:18.022Z,6.67
2023-03-17T00:11:46.808Z,7.40
2023-03-17T00:14:16.580Z,6.87
2023-03-17T00:16:46.418Z,7.33
2023-03-17T00:19:17.266Z,7.30
2023-03-17T00:21:45.807Z,7.07
2023-03-17T00:24:15.267Z,7.00
2023-03-17T00:26:43.258Z,6.90
2023-03-17T00:29:11.150Z,6.70
2023-03-17T00:31:40.634Z,5.87
2023-03-17T00:34:13.373Z,7.00
2023-03-17T00:36:41.416Z,6.83
2023-03-17T00:39:17.994Z,6.73
2023-03-17T00:44:27.682Z,6.90
2023-03-17T00:46:57.861Z,6.40
2023-03-17T00:49:26.735Z,6.83
2023-03-17T00:51:54.992Z,7.13
2023-03-17T00:54:22.932Z,6.70
2023-03-17T00:56:52.501Z,7.30
2023-03-17T00:59:26.238Z,7.00
2023-03-17T01:01:58.560Z,6.73
2023-03-17T01:04:26.484Z,7.33
2023-03-17T01:06:54.968Z,6.67
2023-03-17T01:09:26.833Z,7.23
2023-03-17T01:11:55.015Z,6.60
2023-03-17T01:14:24.689Z,7.50
2023-03-17T01:16:55.247Z,7.60
2023-03-17T01:19:24.758Z,7.80
2023-03-17T01:21:52.564Z,7.07
2023-03-17T01:24:21.029Z,8.33
2023-03-17T01:26:48.977Z,7.90
2023-03-17T01:29:16.634Z,8.77
2023-03-17T01:31:45.456Z,9.23
2023-03-17T01:34:13.279Z,9.97
2023-03-17T01:36:43.718Z,10.33
2023-03-17T01:39:12.881Z,10.13
2023-03-17T01:41:41.022Z,9.67
2023-03-17T01:44:13.092Z,8.20
2023-03-17T01:46:40.947Z,8.37
2023-03-17T01:49:14.596Z,8.50
2023-03-17T01:51:51.248Z,8.17
2023-03-17T01:54:25.326Z,8.60
2023-03-17T01:56:55.268Z,7.80
2023-03-17T01:59:29.840Z,7.50
2023-03-17T02:02:03.055Z,9.33
2023-03-17T02:04:31.572Z,7.73
2023-03-17T02:07:01.946Z,7.83
2023-03-17T02:09:29.869Z,7.10
2023-03-17T02:11:59.892Z,7.77
2023-03-17T02:14:28.693Z,7.57
2023-03-17T02:16:56.477Z,7.10
2023-03-17T02:19:24.273Z,7.10
2023-03-17T02:21:55.218Z,7.23
2023-03-17T02:24:35.884Z,7.17
2023-03-17T02:27:07.991Z,6.83
2023-03-17T02:29:37.798Z,6.97
2023-03-17T02:32:06.495Z,6.53
2023-03-17T02:34:34.660Z,6.63
2023-03-17T02:37:03.979Z,6.60
2023-03-17T02:39:32.054Z,6.83
2023-03-17T02:42:00.288Z,6.43
2023-03-17T02:44:28.104Z,6.73
2023-03-17T02:46:56.532Z,7.20
2023-03-17T02:49:25.993Z,6.63
2023-03-17T02:51:54.653Z,6.70
2023-03-17T02:54:24.296Z,6.30
2023-03-17T02:56:52.096Z,6.37
2023-03-17T02:59:19.893Z,6.27
2023-03-17T03:01:48.576Z,6.90
2023-03-17T03:04:16.536Z,6.30
2023-03-17T03:06:45.230Z,6.53
2023-03-17T03:09:13.758Z,6.73
2023-03-17T03:11:42.951Z,7.27
2023-03-17T03:14:11.381Z,6.47
2023-03-17T03:16:39.131Z,6.13
2023-03-17T03:19:07.881Z,7.03
2023-03-17T03:21:36.711Z,5.97
2023-03-17T03:24:05.335Z,6.43
2023-03-17T03:26:33.632Z,6.87
2023-03-17T03:29:02.918Z,6.13
2023-03-17T03:31:30.991Z,5.77
2023-03-17T03:33:58.622Z,7.13
2023-03-17T03:36:26.865Z,7.10
2023-03-17T03:38:54.854Z,6.30
2023-03-17T03:41:22.534Z,6.50
2023-03-17T03:43:50.377Z,6.03
2023-03-17T03:46:19.756Z,6.50
2023-03-17T03:48:47.459Z,6.07
2023-03-17T03:51:15.179Z,6.53
2023-03-17T03:53:43.178Z,6.77
2023-03-17T03:56:10.923Z,6.17
2023-03-17T03:58:39.120Z,6.87
2023-03-17T04:01:07.374Z,6.77
2023-03-17T04:03:36.781Z,6.17
2023-03-17T04:06:04.858Z,6.87
2023-03-17T04:08:35.156Z,7.00
2023-03-17T04:11:02.830Z,6.53
2023-03-17T04:13:30.749Z,7.27
2023-03-17T04:15:58.486Z,6.97
2023-03-17T04:18:26.372Z,7.40
2023-03-17T04:20:55.537Z,6.27
2023-03-17T04:23:23.279Z,6.07
2023-03-17T04:25:51.930Z,6.73
2023-03-17T04:28:20.507Z,5.63
2023-03-17T04:30:48.305Z,6.83
2023-03-17T04:33:16.071Z,6.53
2023-03-17T04:35:44.044Z,6.07
2023-03-17T04:38:14.292Z,6.20
2023-03-17T04:40:42.241Z,6.43
2023-03-17T04:43:10.381Z,6.30
2023-03-17T04:45:39.276Z,6.43
2023-03-17T04:48:08.601Z,6.50
2023-03-17T04:50:36.721Z,6.40
2023-03-17T04:53:04.846Z,6.13
2023-03-17T04:55:34.257Z,6.27
2023-03-17T04:58:02.044Z,6.40
2023-03-17T05:00:30.016Z,6.53
2023-03-17T05:02:58.004Z,6.53
2023-03-17T05:05:25.920Z,6.63
2023-03-17T05:07:53.610Z,6.60
2023-03-17T05:10:21.420Z,7.30
2023-03-17T05:12:50.607Z,6.23
2023-03-17T05:15:18.660Z,6.03
2023-03-17T05:17:46.728Z,6.43
2023-03-17T05:20:15.640Z,6.40
2023-03-17T05:22:43.412Z,6.20
2023-03-17T05:25:11.332Z,6.60
2023-03-17T05:27:39.464Z,6.63
2023-03-17T05:30:10.187Z,7.17
2023-03-17T05:32:38.257Z,6.43
2023-03-17T05:35:06.895Z,6.73
2023-03-17T05:37:34.881Z,6.77
2023-03-17T05:40:03.109Z,5.70
2023-03-17T05:42:31.028Z,6.73
2023-03-17T05:44:58.806Z,6.87
2023-03-17T05:47:28.087Z,6.93
2023-03-17T05:49:56.195Z,6.30
2023-03-17T05:52:23.931Z,5.73
2023-03-17T05:54:52.344Z,7.20
2023-03-17T05:57:20.294Z,7.53
2023-03-17T05:59:48.278Z,5.80
2023-03-17T06:02:16.133Z,7.20
2023-03-17T06:04:45.412Z,6.80
2023-03-17T06:07:13.947Z,7.97
2023-03-17T06:09:44.605Z,7.77
2023-03-17T06:12:12.472Z,9.00
2023-03-17T06:14:40.401Z,7.20
2023-03-17T06:17:08.570Z,7.17
2023-03-17T06:19:36.482Z,7.60
2023-03-17T06:22:05.731Z,7.60
2023-03-17T06:24:33.562Z,7.90
2023-03-17T06:27:01.848Z,6.97
2023-03-17T06:29:30.026Z,7.50
2023-03-17T06:32:01.485Z,7.57
2023-03-17T06:34:37.357Z,7.63
2023-03-17T06:37:07.857Z,7.77
2023-03-17T06:39:35.970Z,7.53
2023-03-17T06:42:06.258Z,7.83
2023-03-17T06:44:34.127Z,8.80
2023-03-17T06:47:02.118Z,8.77
2023-03-17T06:49:30.055Z,8.13
2023-03-17T06:51:58.111Z,8.53
2023-03-17T06:54:27.391Z,8.70
2023-03-17T06:56:55.400Z,8.90
2023-03-17T06:59:23.372Z,8.73
2023-03-17T07:01:52.125Z,8.23
2023-03-17T07:04:21.115Z,7.23
2023-03-17T07:06:51.634Z,6.97
2023-03-17T07:09:19.475Z,6.90
2023-03-17T07:11:48.582Z,6.63
2023-03-17T07:14:16.303Z,7.70
2023-03-17T07:16:45.239Z,6.90
2023-03-17T07:19:13.068Z,7.50
2023-03-17T07:21:40.868Z,6.83
2023-03-17T07:24:10.045Z,6.83
2023-03-17T07:26:37.997Z,7.10
2023-03-17T07:29:08.306Z,7.47
2023-03-17T07:31:38.796Z,7.70
2023-03-17T07:34:08.062Z,7.87
2023-03-17T07:36:36.563Z,7.47
2023-03-17T07:39:05.275Z,6.77
2023-03-17T07:41:32.991Z,7.20
2023-03-17T07:44:01.094Z,8.47
2023-03-17T07:46:30.962Z,8.33
2023-03-17T07:48:59.178Z,6.67
2023-03-17T07:51:28.315Z,5.67
2023-03-17T07:54:03.264Z,6.43
2023-03-17T07:56:31.863Z,5.77
2023-03-17T07:59:00.143Z,5.50
2023-03-17T08:01:28.926Z,6.43
2023-03-17T08:03:58.418Z,6.47
2023-03-17T08:06:26.535Z,6.87
2023-03-17T08:08:55.237Z,6.50
2023-03-17T08:11:23.524Z,6.63
2023-03-17T08:13:51.846Z,6.70
2023-03-17T08:16:19.785Z,6.73
2023-03-17T08:18:48.005Z,6.70
2023-03-17T08:21:17.647Z,6.33
2023-03-17T08:23:45.657Z,7.07
2023-03-17T08:26:14.878Z,6.73
2023-03-17T08:28:42.983Z,5.90
2023-03-17T08:31:13.086Z,5.87
2023-03-17T08:33:42.402Z,6.53
2023-03-17T08:36:11.643Z,6.40
2023-03-17T08:38:42.972Z,6.73
2023-03-17T08:41:13.886Z,5.60
2023-03-17T08:43:44.017Z,7.07
2023-03-17T08:46:17.206Z,7.10
2023-03-17T08:48:46.837Z,6.40
2023-03-17T08:51:18.100Z,6.27
2023-03-17T08:53:48.162Z,6.67
2023-03-17T08:56:16.956Z,7.20
2023-03-17T08:58:45.852Z,7.30
2023-03-17T09:01:14.633Z,6.57
2023-03-17T09:03:42.758Z,6.20
2023-03-17T09:06:12.141Z,6.43
2023-03-17T09:08:44.462Z,6.40
2023-03-17T09:11:16.688Z,6.22
2023-03-17T09:13:46.529Z,6.35
2023-03-17T09:16:14.995Z,6.45
2023-03-17T09:18:43.440Z,6.22
2023-03-17T09:21:12.713Z,6.65
2023-03-17T09:23:41.059Z,6.18
2023-03-17T09:26:10.200Z,6.55
2023-03-17T09:28:39.461Z,6.28
2023-03-17T09:31:11.365Z,6.53
2023-03-17T09:33:39.671Z,6.45
2023-03-17T09:36:08.217Z,6.70
2023-03-17T09:38:37.243Z,6.90
2023-03-17T09:41:24.646Z,7.28
2023-03-17T09:44:02.171Z,7.57
2023-03-17T09:46:41.489Z,7.07
2023-03-17T09:49:13.753Z,7.97
2023-03-17T09:51:45.033Z,8.13
2023-03-17T09:54:18.362Z,8.85
2023-03-17T09:56:51.382Z,9.10
2023-03-17T09:59:30.946Z,9.60
2023-03-17T10:01:58.925Z,9.00
2023-03-17T10:04:27.164Z,8.68
2023-03-17T10:07:02.115Z,9.18
2023-03-17T10:09:36.981Z,9.82
2023-03-17T10:12:11.094Z,8.85
2023-03-17T10:14:51.111Z,8.57
2023-03-17T10:17:22.288Z,8.93
2023-03-17T10:19:58.651Z,8.07
2023-03-17T10:22:32.048Z,7.78
2023-03-17T10:25:07.177Z,6.93
2023-03-17T10:27:38.658Z,6.93
2023-03-17T10:30:16.247Z,5.88
2023-03-17T10:32:45.029Z,6.28
2023-03-17T10:35:13.099Z,5.63
2023-03-17T10:37:43.916Z,5.03
2023-03-17T10:40:22.466Z,4.70
2023-03-17T10:42:52.958Z,4.60
2023-03-17T10:45:29.326Z,4.55
2023-03-17T10:47:58.908Z,4.65
2023-03-17T10:50:30.485Z,5.15
2023-03-17T10:53:00.741Z,4.78
2023-03-17T10:55:32.522Z,4.35
2023-03-17T10:58:04.936Z,4.60
2023-03-17T11:00:36.604Z,4.07
2023-03-17T11:03:13.102Z,4.60
2023-03-17T11:05:40.825Z,4.40
2023-03-17T11:08:12.622Z,3.97
2023-03-17T11:10:42.186Z,4.20
2023-03-17T11:13:10.495Z,4.80
2023-03-17T11:15:47.810Z,4.20
2023-03-17T11:18:20.452Z,5.00
2023-03-17T11:20:54.113Z,4.43
2023-03-17T11:23:45.428Z,4.40
2023-03-17T11:26:28.033Z,4.70
2023-03-17T11:29:06.774Z,4.77
2023-03-17T11:31:43.554Z,4.00
2023-03-17T11:34:20.547Z,4.70
2023-03-17T11:37:00.231Z,4.50
2023-03-17T11:39:37.807Z,4.67
2023-03-17T11:42:14.886Z,4.93
2023-03-17T11:45:16.753Z,4.97
2023-03-17T11:48:08.239Z,4.87
2023-03-17T11:50:41.991Z,4.87
2023-03-17T11:53:25.545Z,5.47
2023-03-17T11:55:58.837Z,5.33
2023-03-17T11:58:35.487Z,5.50
2023-03-17T12:01:08.920Z,5.33
2023-03-17T12:03:46.129Z,5.50
2023-03-17T12:06:20.513Z,5.03
2023-03-17T12:08:53.354Z,5.63
2023-03-17T12:11:26.241Z,5.33
2023-03-17T12:13:59.516Z,5.30
2023-03-17T12:16:33.161Z,5.77
2023-03-17T12:19:11.474Z,5.33
2023-03-17T12:21:45.882Z,5.37
2023-03-17T12:24:20.104Z,5.40
2023-03-17T12:26:57.621Z,5.37
2023-03-17T12:29:37.813Z,5.53
2023-03-17T12:32:11.546Z,5.47
2023-03-17T12:34:46.595Z,5.83
2023-03-17T12:37:17.578Z,6.13
2023-03-17T12:39:52.448Z,7.33
2023-03-17T12:42:31.250Z,6.10
2023-03-17T12:45:28.364Z,5.87
2023-03-17T12:48:16.921Z,6.37
2023-03-17T12:51:18.845Z,5.27
2023-03-17T12:53:50.623Z,6.67
2023-03-17T12:56:22.708Z,6.33
2023-03-17T12:58:52.192Z,5.43
2023-03-17T13:01:31.985Z,7.53
2023-03-17T13:04:14.036Z,6.23
2023-03-17T13:06:45.292Z,5.77
2023-03-17T13:09:43.297Z,7.00
2023-03-17T13:12:44.580Z,6.77
2023-03-17T13:15:24.606Z,6.03
2023-03-17T13:17:53.758Z,6.00
2023-03-17T13:20:36.900Z,6.83
2023-03-17T13:23:14.911Z,5.07
2023-03-17T13:25:53.565Z,4.90
2023-03-17T13:28:27.485Z,4.97
2023-03-17T13:31:34.726Z,4.23
2023-03-17T13:34:16.347Z,4.70
2023-03-17T13:36:54.926Z,5.60
2023-03-17T13:39:38.770Z,5.20
2023-03-17T13:42:20.892Z,5.00
2023-03-17T13:45:08.718Z,4.53
2023-03-17T13:47:39.917Z,4.53
2023-03-17T13:50:13.467Z,5.10
2023-03-17T13:52:44.194Z,5.57
2023-03-17T13:55:36.051Z,4.87
2023-03-17T13:58:36.436Z,4.73
2023-03-17T14:01:09.251Z,4.70
2023-03-17T14:03:42.989Z,6.30
2023-03-17T14:06:14.243Z,5.27
2023-03-17T14:08:47.505Z,4.80
2023-03-17T14:11:28.374Z,5.30
2023-03-17T14:14:31.457Z,4.97
2023-03-17T14:17:06.228Z,5.30
2023-03-17T14:19:33.969Z,5.27
2023-03-17T14:22:19.287Z,5.10
2023-03-17T14:24:51.917Z,5.40
2023-03-17T14:27:19.981Z,5.47
2023-03-17T14:29:49.263Z,4.83
2023-03-17T14:32:19.752Z,4.83
2023-03-17T14:34:52.964Z,5.00
2023-03-17T14:37:21.320Z,4.43
2023-03-17T14:39:52.217Z,4.40
2023-03-17T14:42:22.052Z,5.83
2023-03-17T14:45:01.605Z,4.67
2023-03-17T14:47:31.038Z,4.70
2023-03-17T14:49:58.734Z,4.37
2023-03-17T14:52:28.857Z,5.07
2023-03-17T14:54:59.979Z,4.80
2023-03-17T14:57:32.363Z,4.67
2023-03-17T15:00:04.572Z,4.70
2023-03-17T15:02:35.390Z,4.87
2023-03-17T15:05:07.856Z,5.47
2023-03-17T15:07:39.642Z,5.33
2023-03-17T15:10:14.520Z,5.37
2023-03-17T15:12:42.682Z,5.73
2023-03-17T15:15:22.797Z,6.07
2023-03-17T15:17:55.334Z,6.27
2023-03-17T15:20:26.769Z,5.43
2023-03-17T15:22:59.683Z,5.70
2023-03-17T15:25:34.078Z,5.97
2023-03-17T15:28:02.182Z,6.23
2023-03-17T15:30:44.338Z,5.67
2023-03-17T15:33:22.265Z,5.03
2023-03-17T15:35:51.346Z,5.90
2023-03-17T15:38:19.179Z,5.50
2023-03-17T15:40:47.123Z,5.13
2023-03-17T15:43:16.285Z,6.07
2023-03-17T15:45:46.436Z,6.53
2023-03-17T15:48:21.377Z,6.23
2023-03-17T15:50:49.888Z,6.73
2023-03-17T15:53:18.060Z,7.57
2023-03-17T15:55:46.230Z,7.80
2023-03-17T15:58:14.129Z,6.97
2023-03-17T16:00:42.856Z,6.83
2023-03-17T16:03:19.861Z,7.00
2023-03-17T16:05:47.861Z,6.43
2023-03-17T16:08:17.804Z,6.57
2023-03-17T16:10:46.406Z,6.57
2023-03-17T16:13:14.115Z,6.57
2023-03-17T16:15:44.682Z,6.73
2023-03-17T16:18:18.135Z,5.23
2023-03-17T16:20:48.067Z,6.27
2023-03-17T16:23:19.782Z,6.67
2023-03-17T16:25:47.691Z,6.83
2023-03-17T16:28:17.891Z,6.70
2023-03-17T16:30:47.417Z,6.43
2023-03-17T16:33:19.957Z,6.10
2023-03-17T16:35:49.627Z,7.47
2023-03-17T16:38:19.708Z,6.10
2023-03-17T16:40:49.375Z,6.83
2023-03-17T16:43:25.831Z,6.90
2023-03-17T16:45:55.807Z,6.60
2023-03-17T16:48:27.262Z,6.63
2023-03-17T16:50:55.804Z,6.47
2023-03-17T16:53:24.821Z,6.17
2023-03-17T16:55:57.949Z,6.57
2023-03-17T16:58:27.799Z,6.70
2023-03-17T17:00:59.427Z,6.77
2023-03-17T17:03:29.173Z,6.73
2023-03-17T17:05:57.056Z,6.83
2023-03-17T17:08:24.887Z,6.90
2023-03-17T17:10:52.719Z,6.63
2023-03-17T17:13:20.566Z,6.83
2023-03-17T17:15:48.636Z,7.07
2023-03-17T17:18:18.767Z,6.73
2023-03-17T17:20:47.852Z,7.43
2023-03-17T17:23:17.588Z,7.20
2023-03-17T17:25:48.143Z,7.30
2023-03-17T17:28:17.949Z,9.13
2023-03-17T17:30:48.023Z,8.87
2023-03-17T17:33:16.906Z,9.10
2023-03-17T17:35:45.563Z,7.90
2023-03-17T17:38:20.936Z,9.48
2023-03-17T17:40:50.970Z,7.93
2023-03-17T17:43:19.144Z,8.10
2023-03-17T17:45:49.688Z,8.47
2023-03-17T17:48:18.821Z,8.67
2023-03-17T17:50:46.745Z,8.97
2023-03-17T17:53:14.809Z,9.10
2023-03-17T17:55:44.921Z,8.73
2023-03-17T17:58:14.055Z,7.80
2023-03-17T18:00:42.134Z,8.50
2023-03-17T18:03:10.192Z,9.30
2023-03-17T18:05:38.232Z,7.83
2023-03-17T18:08:06.593Z,8.17
2023-03-17T18:10:35.105Z,9.00
2023-03-17T18:13:05.137Z,8.40
2023-03-17T18:15:32.797Z,7.47
2023-03-17T18:18:00.552Z,8.70
2023-03-17T18:20:28.784Z,9.73
2023-03-17T18:22:56.693Z,10.43
2023-03-17T18:25:25.642Z,11.20
2023-03-17T18:27:54.013Z,10.30
2023-03-17T18:30:25.730Z,12.37
2023-03-17T18:32:57.092Z,12.07
2023-03-17T18:35:28.098Z,12.03
2023-03-17T18:37:57.454Z,10.87
2023-03-17T18:40:25.300Z,11.87
2023-03-17T18:42:53.165Z,12.67
2023-03-17T18:45:20.902Z,11.17
2023-03-17T18:47:50.037Z,10.63
2023-03-17T18:50:18.390Z,9.27
2023-03-17T18:52:46.755Z,10.03
2023-03-17T18:55:15.796Z,11.07
2023-03-17T18:57:44.714Z,10.37
2023-03-17T19:00:14.431Z,11.70
2023-03-17T19:02:42.148Z,9.90
2023-03-17T19:05:11.762Z,9.60
2023-03-17T19:07:40.621Z,9.23
2023-03-17T19:10:09.950Z,10.53
2023-03-17T19:12:38.500Z,9.77
2023-03-17T19:15:07.953Z,9.60
2023-03-17T19:17:36.176Z,9.67
2023-03-17T19:20:06.735Z,10.00
2023-03-17T19:22:36.186Z,9.63
2023-03-17T19:25:04.374Z,9.97
2023-03-17T19:27:32.256Z,11.00
2023-03-17T19:30:00.134Z,10.87
2023-03-17T19:32:28.017Z,12.77
2023-03-17T19:34:55.735Z,12.53
2023-03-17T19:37:23.752Z,12.50
2023-03-17T19:39:52.727Z,11.77
2023-03-17T19:42:20.421Z,12.80
2023-03-17T19:44:48.120Z,13.70
2023-03-17T19:47:15.992Z,14.87
2023-03-17T19:49:43.688Z,11.63
2023-03-17T19:52:11.486Z,14.27
2023-03-17T19:54:43.566Z,13.63
2023-03-17T19:57:13.195Z,12.67
2023-03-17T19:59:41.444Z,13.37
2023-03-17T20:02:09.489Z,13.87
2023-03-17T20:04:38.081Z,13.10
2023-03-17T20:07:05.932Z,13.27
2023-03-17T20:09:33.747Z,12.57
2023-03-17T20:12:01.989Z,12.00
2023-03-17T20:14:31.134Z,9.63
2023-03-17T20:16:59.095Z,8.93
2023-03-17T20:19:27.700Z,11.00
2023-03-17T20:21:58.383Z,11.07
2023-03-17T20:24:27.088Z,10.90
2023-03-17T20:26:57.319Z,9.60
2023-03-17T20:29:25.760Z,8.93
2023-03-17T20:31:55.254Z,10.23
2023-03-17T20:34:23.639Z,11.77
2023-03-17T20:36:51.913Z,10.67
2023-03-17T20:39:20.639Z,11.03
2023-03-17T20:41:49.072Z,10.77
2023-03-17T20:44:17.675Z,10.20
2023-03-17T20:46:46.040Z,9.40
2023-03-17T20:49:15.814Z,9.17
2023-03-17T20:51:44.122Z,8.37
2023-03-17T20:54:12.658Z,10.17
2023-03-17T20:56:40.887Z,9.37
2023-03-17T20:59:09.887Z,9.60
2023-03-17T21:01:40.248Z,10.07
2023-03-17T21:04:09.876Z,9.97
2023-03-17T21:06:39.642Z,10.40
2023-03-17T21:09:07.699Z,10.90
2023-03-17T21:11:36.848Z,10.03
2023-03-17T21:14:06.888Z,10.93
2023-03-17T21:16:36.338Z,9.93
2023-03-17T21:19:06.104Z,9.67
2023-03-17T21:21:35.654Z,9.90
2023-03-17T21:24:08.396Z,9.30
2023-03-17T21:26:36.250Z,11.10
2023-03-17T21:29:04.322Z,10.73
2023-03-17T21:31:32.383Z,10.30
2023-03-17T21:34:00.132Z,10.73
2023-03-17T21:36:28.652Z,11.70
2023-03-17T21:38:56.434Z,10.70
2023-03-17T21:41:33.213Z,11.60
2023-03-17T21:44:03.091Z,10.10
2023-03-17T21:46:31.621Z,11.10
2023-03-17T21:49:00.303Z,10.30
2023-03-17T21:51:28.479Z,10.87
2023-03-17T21:53:57.271Z,9.93
2023-03-17T21:56:27.345Z,10.27
2023-03-17T21:58:55.227Z,11.17
2023-03-17T22:01:23.392Z,11.27
2023-03-17T22:03:52.473Z,9.80
2023-03-17T22:06:21.442Z,10.17
2023-03-17T22:08:50.583Z,10.67
2023-03-17T22:11:19.483Z,10.67
2023-03-17T22:13:49.252Z,9.83
2023-03-17T22:16:18.517Z,11.20
2023-03-17T22:18:49.645Z,10.67
2023-03-17T22:21:17.964Z,12.07
2023-03-17T22:23:46.246Z,10.33
2023-03-17T22:26:16.474Z,11.10
2023-03-17T22:28:45.596Z,11.07
2023-03-17T22:31:16.567Z,10.00
2023-03-17T22:33:44.986Z,11.30
2023-03-17T22:36:12.787Z,10.77
2023-03-17T22:38:40.718Z,11.33
2023-03-17T22:41:11.306Z,13.97
2023-03-17T22:43:40.263Z,11.80
2023-03-17T22:46:08.551Z,11.77
2023-03-17T22:48:38.137Z,10.90
2023-03-17T22:51:08.194Z,11.23
2023-03-17T22:53:36.672Z,11.80
2023-03-17T22:56:05.833Z,12.03
2023-03-17T22:58:33.881Z,12.10
2023-03-17T23:01:02.615Z,12.07
2023-03-17T23:03:31.992Z,12.43
2023-03-17T23:06:03.878Z,12.13
2023-03-17T23:08:35.027Z,12.13
2023-03-17T23:11:07.081Z,12.17
2023-03-17T23:13:35.231Z,11.80
2023-03-17T23:16:04.662Z,11.80
2023-03-17T23:18:33.221Z,10.50
2023-03-17T23:21:03.670Z,10.53
2023-03-17T23:23:31.923Z,10.17
2023-03-17T23:25:59.743Z,10.80
2023-03-17T23:28:28.199Z,11.57
2023-03-17T23:30:56.254Z,10.50
2023-03-17T23:33:25.674Z,10.97
2023-03-17T23:35:54.066Z,10.73
2023-03-17T23:38:23.456Z,11.30
2023-03-17T23:40:51.717Z,11.23
2023-03-17T23:43:19.490Z,9.27
2023-03-17T23:45:47.972Z,9.87
2023-03-17T23:48:15.738Z,10.43
2023-03-17T23:50:44.208Z,10.73
2023-03-17T23:53:13.269Z,9.20
2023-03-17T23:55:42.416Z,9.87
2023-03-17T23:58:10.169Z,10.77
